sensor_id;sensor_type;location;lat;lon;timestamp;P1;durP1;ratioP1;P2;durP2;ratioP2
16460;SDS011;8341;42.048;24.650;2023-04-06T00:00:44;11.07;;;7.47;;
16460;SDS011;8341;42.048;24.650;2023-04-06T00:03:11;10.77;;;7.80;;
16460;SDS011;8341;42.048;24.650;2023-04-06T00:05:40;11.30;;;8.07;;
16460;SDS011;8341;42.048;24.650;2023-04-06T00:08:07;11.00;;;8.15;;
16460;SDS011;8341;42.048;24.650;2023-04-06T00:10:35;11.30;;;8.67;;
16460;SDS011;8341;42.048;24.650;2023-04-06T00:13:02;10.60;;;8.18;;
16460;SDS011;8341;42.048;24.650;2023-04-06T00:15:29;12.17;;;8.60;;
16460;SDS011;8341;42.048;24.650;2023-04-06T00:17:56;10.53;;;8.10;;
16460;SDS011;8341;42.048;24.650;2023-04-06T00:20:23;12.37;;;8.63;;
16460;SDS011;8341;42.048;24.650;2023-04-06T00:22:52;12.23;;;8.67;;
16460;SDS011;8341;42.048;24.650;2023-04-06T00:25:19;11.60;;;8.37;;
16460;SDS011;8341;42.048;24.650;2023-04-06T00:27:46;11.63;;;8.63;;
16460;SDS011;8341;42.048;24.650;2023-04-06T00:30:13;9.70;;;7.73;;
16460;SDS011;8341;42.048;24.650;2023-04-06T00:32:40;12.50;;;7.90;;
16460;SDS011;8341;42.048;24.650;2023-04-06T00:35:08;14.30;;;8.67;;
16460;SDS011;8341;42.048;24.650;2023-04-06T00:37:35;11.73;;;8.53;;
16460;SDS011;8341;42.048;24.650;2023-04-06T00:40:04;10.60;;;8.07;;
16460;SDS011;8341;42.048;24.650;2023-04-06T00:42:32;11.13;;;8.23;;
16460;SDS011;8341;42.048;24.650;2023-04-06T00:45:00;10.63;;;7.90;;
16460;SDS011;8341;42.048;24.650;2023-04-06T00:47:28;10.13;;;7.60;;
16460;SDS011;8341;42.048;24.650;2023-04-06T00:49:56;11.97;;;8.47;;
16460;SDS011;8341;42.048;24.650;2023-04-06T00:52:23;12.17;;;8.23;;
16460;SDS011;8341;42.048;24.650;2023-04-06T00:54:50;11.77;;;8.00;;
16460;SDS011;8341;42.048;24.650;2023-04-06T00:57:19;11.07;;;8.43;;
16460;SDS011;8341;42.048;24.650;2023-04-06T00:59:46;12.47;;;8.87;;
16460;SDS011;8341;42.048;24.650;2023-04-06T01:02:13;11.20;;;8.40;;
16460;SDS011;8341;42.048;24.650;2023-04-06T01:04:40;10.57;;;7.50;;
16460;SDS011;8341;42.048;24.650;2023-04-06T01:07:07;11.57;;;8.13;;
16460;SDS011;8341;42.048;24.650;2023-04-06T01:09:34;12.70;;;8.73;;
16460;SDS011;8341;42.048;24.650;2023-04-06T01:12:01;11.20;;;7.80;;
16460;SDS011;8341;42.048;24.650;2023-04-06T01:14:30;11.77;;;8.33;;
16460;SDS011;8341;42.048;24.650;2023-04-06T01:16:57;11.03;;;8.23;;
16460;SDS011;8341;42.048;24.650;2023-04-06T01:19:25;11.27;;;8.07;;
16460;SDS011;8341;42.048;24.650;2023-04-06T01:21:52;10.17;;;7.80;;
16460;SDS011;8341;42.048;24.650;2023-04-06T01:24:21;13.30;;;8.80;;
16460;SDS011;8341;42.048;24.650;2023-04-06T01:26:48;12.40;;;8.53;;
16460;SDS011;8341;42.048;24.650;2023-04-06T01:29:15;11.97;;;8.37;;
16460;SDS011;8341;42.048;24.650;2023-04-06T01:31:42;12.77;;;8.17;;
16460;SDS011;8341;42.048;24.650;2023-04-06T01:34:09;13.90;;;9.17;;
16460;SDS011;8341;42.048;24.650;2023-04-06T01:36:37;12.33;;;9.37;;
16460;SDS011;8341;42.048;24.650;2023-04-06T01:39:04;11.87;;;9.03;;
16460;SDS011;8341;42.048;24.650;2023-04-06T01:41:32;12.47;;;9.37;;
16460;SDS011;8341;42.048;24.650;2023-04-06T01:43:59;14.50;;;10.13;;
16460;SDS011;8341;42.048;24.650;2023-04-06T01:46:27;15.03;;;9.80;;
16460;SDS011;8341;42.048;24.650;2023-04-06T01:48:54;12.87;;;9.57;;
16460;SDS011;8341;42.048;24.650;2023-04-06T01:51:21;12.10;;;8.93;;
16460;SDS011;8341;42.048;24.650;2023-04-06T01:53:49;12.97;;;9.23;;
16460;SDS011;8341;42.048;24.650;2023-04-06T01:56:16;12.70;;;8.80;;
16460;SDS011;8341;42.048;24.650;2023-04-06T01:58:45;11.47;;;8.47;;
16460;SDS011;8341;42.048;24.650;2023-04-06T02:01:12;13.07;;;8.83;;
16460;SDS011;8341;42.048;24.650;2023-04-06T02:03:39;12.30;;;8.60;;
16460;SDS011;8341;42.048;24.650;2023-04-06T02:06:06;10.00;;;7.80;;
16460;SDS011;8341;42.048;24.650;2023-04-06T02:08:33;10.33;;;7.50;;
16460;SDS011;8341;42.048;24.650;2023-04-06T02:11:00;10.60;;;8.20;;
16460;SDS011;8341;42.048;24.650;2023-04-06T02:13:28;11.47;;;7.90;;
16460;SDS011;8341;42.048;24.650;2023-04-06T02:15:56;10.70;;;7.87;;
16460;SDS011;8341;42.048;24.650;2023-04-06T02:18:23;12.03;;;8.13;;
16460;SDS011;8341;42.048;24.650;2023-04-06T02:20:51;13.23;;;9.00;;
16460;SDS011;8341;42.048;24.650;2023-04-06T02:23:18;15.93;;;10.27;;
16460;SDS011;8341;42.048;24.650;2023-04-06T02:25:45;14.07;;;9.43;;
16460;SDS011;8341;42.048;24.650;2023-04-06T02:28:12;12.67;;;9.40;;
16460;SDS011;8341;42.048;24.650;2023-04-06T02:30:39;12.87;;;9.20;;
16460;SDS011;8341;42.048;24.650;2023-04-06T02:33:08;13.73;;;8.90;;
16460;SDS011;8341;42.048;24.650;2023-04-06T02:35:35;10.90;;;8.00;;
16460;SDS011;8341;42.048;24.650;2023-04-06T02:38:02;12.13;;;9.30;;
16460;SDS011;8341;42.048;24.650;2023-04-06T02:40:29;14.13;;;9.33;;
16460;SDS011;8341;42.048;24.650;2023-04-06T02:42:56;16.17;;;9.87;;
16460;SDS011;8341;42.048;24.650;2023-04-06T02:45:23;15.10;;;9.77;;
16460;SDS011;8341;42.048;24.650;2023-04-06T02:47:51;13.83;;;9.53;;
16460;SDS011;8341;42.048;24.650;2023-04-06T02:50:20;11.93;;;9.13;;
16460;SDS011;8341;42.048;24.650;2023-04-06T02:52:47;13.47;;;9.57;;
16460;SDS011;8341;42.048;24.650;2023-04-06T02:55:14;12.93;;;9.33;;
16460;SDS011;8341;42.048;24.650;2023-04-06T02:57:41;15.97;;;10.43;;
16460;SDS011;8341;42.048;24.650;2023-04-06T03:00:09;16.43;;;11.17;;
16460;SDS011;8341;42.048;24.650;2023-04-06T03:02:37;11.77;;;7.93;;
16460;SDS011;8341;42.048;24.650;2023-04-06T03:05:04;11.57;;;8.73;;
16460;SDS011;8341;42.048;24.650;2023-04-06T03:07:32;11.73;;;7.87;;
16460;SDS011;8341;42.048;24.650;2023-04-06T03:10:00;11.57;;;7.97;;
16460;SDS011;8341;42.048;24.650;2023-04-06T03:12:27;9.60;;;6.93;;
16460;SDS011;8341;42.048;24.650;2023-04-06T03:14:54;12.00;;;8.17;;
16460;SDS011;8341;42.048;24.650;2023-04-06T03:17:21;10.40;;;7.63;;
16460;SDS011;8341;42.048;24.650;2023-04-06T03:19:48;8.97;;;7.03;;
16460;SDS011;8341;42.048;24.650;2023-04-06T03:22:15;10.73;;;7.77;;
16460;SDS011;8341;42.048;24.650;2023-04-06T03:24:44;11.67;;;7.60;;
16460;SDS011;8341;42.048;24.650;2023-04-06T03:27:11;11.83;;;8.20;;
16460;SDS011;8341;42.048;24.650;2023-04-06T03:29:38;11.30;;;7.30;;
16460;SDS011;8341;42.048;24.650;2023-04-06T03:32:05;13.03;;;7.80;;
16460;SDS011;8341;42.048;24.650;2023-04-06T03:34:32;11.33;;;7.27;;
16460;SDS011;8341;42.048;24.650;2023-04-06T03:36:59;11.27;;;7.53;;
16460;SDS011;8341;42.048;24.650;2023-04-06T03:39:26;11.27;;;7.23;;
16460;SDS011;8341;42.048;24.650;2023-04-06T03:41:56;10.83;;;6.93;;
16460;SDS011;8341;42.048;24.650;2023-04-06T03:44:23;10.80;;;6.90;;
16460;SDS011;8341;42.048;24.650;2023-04-06T03:46:50;8.93;;;6.87;;
16460;SDS011;8341;42.048;24.650;2023-04-06T03:49:17;9.20;;;6.87;;
16460;SDS011;8341;42.048;24.650;2023-04-06T03:51:44;9.77;;;7.40;;
16460;SDS011;8341;42.048;24.650;2023-04-06T03:54:12;9.70;;;6.70;;
16460;SDS011;8341;42.048;24.650;2023-04-06T03:56:39;10.70;;;6.57;;
16460;SDS011;8341;42.048;24.650;2023-04-06T03:59:07;8.40;;;6.57;;
16460;SDS011;8341;42.048;24.650;2023-04-06T04:01:35;9.77;;;6.80;;
16460;SDS011;8341;42.048;24.650;2023-04-06T04:04:02;9.50;;;6.97;;
16460;SDS011;8341;42.048;24.650;2023-04-06T04:06:29;8.57;;;6.33;;
16460;SDS011;8341;42.048;24.650;2023-04-06T04:08:56;11.80;;;6.97;;
16460;SDS011;8341;42.048;24.650;2023-04-06T04:11:23;9.10;;;6.80;;
16460;SDS011;8341;42.048;24.650;2023-04-06T04:13:50;9.03;;;6.57;;
16460;SDS011;8341;42.048;24.650;2023-04-06T04:16:19;9.23;;;7.10;;
16460;SDS011;8341;42.048;24.650;2023-04-06T04:18:46;9.17;;;6.70;;
16460;SDS011;8341;42.048;24.650;2023-04-06T04:21:14;12.10;;;8.53;;
16460;SDS011;8341;42.048;24.650;2023-04-06T04:23:41;13.63;;;9.00;;
16460;SDS011;8341;42.048;24.650;2023-04-06T04:26:08;22.60;;;13.27;;
16460;SDS011;8341;42.048;24.650;2023-04-06T04:28:35;51.60;;;26.23;;
16460;SDS011;8341;42.048;24.650;2023-04-06T04:31:02;53.50;;;25.83;;
16460;SDS011;8341;42.048;24.650;2023-04-06T04:33:31;36.40;;;19.60;;
16460;SDS011;8341;42.048;24.650;2023-04-06T04:35:58;22.57;;;13.47;;
16460;SDS011;8341;42.048;24.650;2023-04-06T04:38:25;10.77;;;7.10;;
16460;SDS011;8341;42.048;24.650;2023-04-06T04:40:52;11.57;;;7.50;;
16460;SDS011;8341;42.048;24.650;2023-04-06T04:43:19;12.80;;;8.17;;
16460;SDS011;8341;42.048;24.650;2023-04-06T04:45:46;11.77;;;7.80;;
16460;SDS011;8341;42.048;24.650;2023-04-06T04:48:13;9.63;;;7.10;;
16460;SDS011;8341;42.048;24.650;2023-04-06T04:50:42;10.03;;;6.80;;
16460;SDS011;8341;42.048;24.650;2023-04-06T04:53:09;9.13;;;6.60;;
16460;SDS011;8341;42.048;24.650;2023-04-06T04:55:36;8.20;;;6.50;;
16460;SDS011;8341;42.048;24.650;2023-04-06T04:58:03;10.53;;;7.13;;
16460;SDS011;8341;42.048;24.650;2023-04-06T05:00:30;9.20;;;6.57;;
16460;SDS011;8341;42.048;24.650;2023-04-06T05:02:57;8.83;;;6.27;;
16460;SDS011;8341;42.048;24.650;2023-04-06T05:05:25;8.33;;;6.20;;
16460;SDS011;8341;42.048;24.650;2023-04-06T05:07:54;9.67;;;6.37;;
16460;SDS011;8341;42.048;24.650;2023-04-06T05:10:21;7.70;;;6.20;;
16460;SDS011;8341;42.048;24.650;2023-04-06T05:12:48;8.93;;;6.63;;
16460;SDS011;8341;42.048;24.650;2023-04-06T05:15:15;9.40;;;6.90;;
16460;SDS011;8341;42.048;24.650;2023-04-06T05:17:43;8.57;;;6.40;;
16460;SDS011;8341;42.048;24.650;2023-04-06T05:20:10;12.63;;;8.53;;
16460;SDS011;8341;42.048;24.650;2023-04-06T05:22:38;12.43;;;9.20;;
16460;SDS011;8341;42.048;24.650;2023-04-06T05:25:07;7.87;;;6.60;;
16460;SDS011;8341;42.048;24.650;2023-04-06T05:27:34;9.98;;;7.13;;
16460;SDS011;8341;42.048;24.650;2023-04-06T05:30:02;7.22;;;6.13;;
16460;SDS011;8341;42.048;24.650;2023-04-06T05:32:29;8.25;;;6.82;;
16460;SDS011;8341;42.048;24.650;2023-04-06T05:34:56;8.30;;;6.80;;
16460;SDS011;8341;42.048;24.650;2023-04-06T05:37:23;9.07;;;6.87;;
16460;SDS011;8341;42.048;24.650;2023-04-06T05:42:37;7.50;;;6.03;;
16460;SDS011;8341;42.048;24.650;2023-04-06T05:45:05;8.37;;;6.73;;
16460;SDS011;8341;42.048;24.650;2023-04-06T05:47:33;9.53;;;6.77;;
16460;SDS011;8341;42.048;24.650;2023-04-06T05:50:00;9.37;;;6.87;;
16460;SDS011;8341;42.048;24.650;2023-04-06T05:52:27;8.02;;;6.38;;
16460;SDS011;8341;42.048;24.650;2023-04-06T05:54:54;9.47;;;7.10;;
16460;SDS011;8341;42.048;24.650;2023-04-06T05:57:22;7.67;;;6.33;;
16460;SDS011;8341;42.048;24.650;2023-04-06T05:59:51;9.15;;;6.72;;
16460;SDS011;8341;42.048;24.650;2023-04-06T06:02:18;7.13;;;5.80;;
16460;SDS011;8341;42.048;24.650;2023-04-06T06:04:45;8.38;;;6.88;;
16460;SDS011;8341;42.048;24.650;2023-04-06T06:07:12;7.33;;;6.23;;
16460;SDS011;8341;42.048;24.650;2023-04-06T06:09:40;8.13;;;6.43;;
16460;SDS011;8341;42.048;24.650;2023-04-06T06:12:07;8.87;;;6.43;;
16460;SDS011;8341;42.048;24.650;2023-04-06T06:14:34;8.43;;;6.55;;
16460;SDS011;8341;42.048;24.650;2023-04-06T06:17:03;9.70;;;6.37;;
16460;SDS011;8341;42.048;24.650;2023-04-06T06:19:30;7.83;;;6.47;;
16460;SDS011;8341;42.048;24.650;2023-04-06T06:21:57;7.65;;;6.43;;
16460;SDS011;8341;42.048;24.650;2023-04-06T06:24:27;7.43;;;6.63;;
16460;SDS011;8341;42.048;24.650;2023-04-06T06:26:56;7.22;;;6.10;;
16460;SDS011;8341;42.048;24.650;2023-04-06T06:29:23;9.23;;;7.18;;
16460;SDS011;8341;42.048;24.650;2023-04-06T06:31:50;8.20;;;6.43;;
16460;SDS011;8341;42.048;24.650;2023-04-06T06:34:19;7.72;;;6.32;;
16460;SDS011;8341;42.048;24.650;2023-04-06T06:36:46;9.17;;;7.43;;
16460;SDS011;8341;42.048;24.650;2023-04-06T06:39:13;7.13;;;6.30;;
16460;SDS011;8341;42.048;24.650;2023-04-06T06:41:40;9.93;;;7.43;;
16460;SDS011;8341;42.048;24.650;2023-04-06T06:44:07;8.23;;;6.73;;
16460;SDS011;8341;42.048;24.650;2023-04-06T06:46:34;8.93;;;7.20;;
16460;SDS011;8341;42.048;24.650;2023-04-06T06:49:01;8.60;;;6.53;;
16460;SDS011;8341;42.048;24.650;2023-04-06T06:51:30;8.30;;;6.47;;
16460;SDS011;8341;42.048;24.650;2023-04-06T06:53:57;9.03;;;7.10;;
16460;SDS011;8341;42.048;24.650;2023-04-06T06:56:24;8.70;;;7.27;;
16460;SDS011;8341;42.048;24.650;2023-04-06T06:58:53;8.87;;;6.63;;
16460;SDS011;8341;42.048;24.650;2023-04-06T07:01:20;8.60;;;7.30;;
16460;SDS011;8341;42.048;24.650;2023-04-06T07:03:47;8.32;;;6.43;;
16460;SDS011;8341;42.048;24.650;2023-04-06T07:06:14;10.50;;;7.45;;
16460;SDS011;8341;42.048;24.650;2023-04-06T07:08:43;9.80;;;7.28;;
16460;SDS011;8341;42.048;24.650;2023-04-06T07:11:10;8.15;;;7.15;;
16460;SDS011;8341;42.048;24.650;2023-04-06T07:13:37;8.05;;;6.93;;
16460;SDS011;8341;42.048;24.650;2023-04-06T07:16:04;7.65;;;6.43;;
16460;SDS011;8341;42.048;24.650;2023-04-06T07:18:31;8.27;;;6.68;;
16460;SDS011;8341;42.048;24.650;2023-04-06T07:20:58;7.95;;;6.68;;
16460;SDS011;8341;42.048;24.650;2023-04-06T07:23:25;9.60;;;7.00;;
16460;SDS011;8341;42.048;24.650;2023-04-06T07:25:54;8.40;;;7.22;;
16460;SDS011;8341;42.048;24.650;2023-04-06T07:28:21;8.65;;;7.35;;
16460;SDS011;8341;42.048;24.650;2023-04-06T07:30:48;9.85;;;7.15;;
16460;SDS011;8341;42.048;24.650;2023-04-06T07:33:15;9.88;;;7.50;;
16460;SDS011;8341;42.048;24.650;2023-04-06T07:35:42;9.77;;;7.95;;
16460;SDS011;8341;42.048;24.650;2023-04-06T07:38:10;9.75;;;7.47;;
16460;SDS011;8341;42.048;24.650;2023-04-06T07:40:37;8.65;;;6.88;;
16460;SDS011;8341;42.048;24.650;2023-04-06T07:43:06;8.10;;;6.55;;
16460;SDS011;8341;42.048;24.650;2023-04-06T07:45:33;7.50;;;6.40;;
16460;SDS011;8341;42.048;24.650;2023-04-06T07:48:00;8.70;;;7.07;;
16460;SDS011;8341;42.048;24.650;2023-04-06T07:50:27;9.18;;;7.07;;
16460;SDS011;8341;42.048;24.650;2023-04-06T07:52:54;7.05;;;6.35;;
16460;SDS011;8341;42.048;24.650;2023-04-06T07:55:22;7.40;;;6.00;;
16460;SDS011;8341;42.048;24.650;2023-04-06T07:57:50;9.55;;;6.90;;
16460;SDS011;8341;42.048;24.650;2023-04-06T08:00:18;6.28;;;5.65;;
16460;SDS011;8341;42.048;24.650;2023-04-06T08:02:46;7.70;;;6.50;;
16460;SDS011;8341;42.048;24.650;2023-04-06T08:05:13;7.18;;;6.38;;
16460;SDS011;8341;42.048;24.650;2023-04-06T08:07:40;6.95;;;6.20;;
16460;SDS011;8341;42.048;24.650;2023-04-06T08:10:08;6.07;;;5.57;;
16460;SDS011;8341;42.048;24.650;2023-04-06T08:12:36;7.78;;;6.63;;
16460;SDS011;8341;42.048;24.650;2023-04-06T08:15:03;7.13;;;6.38;;
16460;SDS011;8341;42.048;24.650;2023-04-06T08:17:32;6.95;;;5.85;;
16460;SDS011;8341;42.048;24.650;2023-04-06T08:20:00;7.60;;;6.30;;
16460;SDS011;8341;42.048;24.650;2023-04-06T08:22:29;7.13;;;6.35;;
16460;SDS011;8341;42.048;24.650;2023-04-06T08:24:57;9.02;;;7.13;;
16460;SDS011;8341;42.048;24.650;2023-04-06T08:27:24;8.20;;;6.97;;
16460;SDS011;8341;42.048;24.650;2023-04-06T08:29:51;8.40;;;7.28;;
16460;SDS011;8341;42.048;24.650;2023-04-06T08:32:18;7.00;;;6.25;;
16460;SDS011;8341;42.048;24.650;2023-04-06T08:34:46;8.32;;;7.53;;
16460;SDS011;8341;42.048;24.650;2023-04-06T08:37:14;7.90;;;6.68;;
16460;SDS011;8341;42.048;24.650;2023-04-06T08:39:41;8.43;;;7.40;;
16460;SDS011;8341;42.048;24.650;2023-04-06T08:42:10;8.85;;;7.85;;
16460;SDS011;8341;42.048;24.650;2023-04-06T08:44:42;8.75;;;7.43;;
16460;SDS011;8341;42.048;24.650;2023-04-06T08:47:11;8.55;;;7.57;;
16460;SDS011;8341;42.048;24.650;2023-04-06T08:49:39;8.93;;;7.20;;
16460;SDS011;8341;42.048;24.650;2023-04-06T08:52:08;8.38;;;7.20;;
16460;SDS011;8341;42.048;24.650;2023-04-06T08:54:37;9.80;;;7.95;;
16460;SDS011;8341;42.048;24.650;2023-04-06T08:57:05;8.18;;;7.10;;
16460;SDS011;8341;42.048;24.650;2023-04-06T08:59:33;7.82;;;7.05;;
16460;SDS011;8341;42.048;24.650;2023-04-06T09:02:02;9.15;;;7.15;;
16460;SDS011;8341;42.048;24.650;2023-04-06T09:04:31;8.63;;;7.30;;
16460;SDS011;8341;42.048;24.650;2023-04-06T09:07:00;7.93;;;6.60;;
16460;SDS011;8341;42.048;24.650;2023-04-06T09:09:28;7.93;;;6.70;;
16460;SDS011;8341;42.048;24.650;2023-04-06T09:11:56;7.72;;;6.93;;
16460;SDS011;8341;42.048;24.650;2023-04-06T09:14:35;7.18;;;6.47;;
16460;SDS011;8341;42.048;24.650;2023-04-06T09:17:03;8.52;;;7.63;;
16460;SDS011;8341;42.048;24.650;2023-04-06T09:19:30;9.20;;;6.78;;
16460;SDS011;8341;42.048;24.650;2023-04-06T09:22:03;8.50;;;7.25;;
16460;SDS011;8341;42.048;24.650;2023-04-06T09:24:43;7.85;;;6.85;;
16460;SDS011;8341;42.048;24.650;2023-04-06T09:27:11;8.88;;;7.10;;
16460;SDS011;8341;42.048;24.650;2023-04-06T09:29:38;9.50;;;7.60;;
16460;SDS011;8341;42.048;24.650;2023-04-06T09:32:06;8.98;;;7.65;;
16460;SDS011;8341;42.048;24.650;2023-04-06T09:34:36;9.80;;;8.35;;
16460;SDS011;8341;42.048;24.650;2023-04-06T09:37:13;9.35;;;8.38;;
16460;SDS011;8341;42.048;24.650;2023-04-06T09:39:40;8.00;;;7.20;;
16460;SDS011;8341;42.048;24.650;2023-04-06T09:42:09;7.70;;;6.90;;
16460;SDS011;8341;42.048;24.650;2023-04-06T09:44:37;10.70;;;7.72;;
16460;SDS011;8341;42.048;24.650;2023-04-06T09:47:06;8.50;;;7.00;;
16460;SDS011;8341;42.048;24.650;2023-04-06T09:49:37;7.78;;;6.93;;
16460;SDS011;8341;42.048;24.650;2023-04-06T09:52:05;7.80;;;7.00;;
16460;SDS011;8341;42.048;24.650;2023-04-06T09:54:34;9.18;;;7.40;;
16460;SDS011;8341;42.048;24.650;2023-04-06T09:57:07;9.35;;;7.80;;
16460;SDS011;8341;42.048;24.650;2023-04-06T09:59:39;8.18;;;7.18;;
16460;SDS011;8341;42.048;24.650;2023-04-06T10:02:15;9.45;;;7.43;;
16460;SDS011;8341;42.048;24.650;2023-04-06T10:04:48;7.97;;;6.97;;
16460;SDS011;8341;42.048;24.650;2023-04-06T10:07:20;7.90;;;7.10;;
16460;SDS011;8341;42.048;24.650;2023-04-06T10:09:48;8.00;;;7.20;;
16460;SDS011;8341;42.048;24.650;2023-04-06T10:12:18;7.63;;;6.80;;
16460;SDS011;8341;42.048;24.650;2023-04-06T10:14:46;7.82;;;7.03;;
16460;SDS011;8341;42.048;24.650;2023-04-06T10:17:14;7.97;;;6.65;;
16460;SDS011;8341;42.048;24.650;2023-04-06T10:19:41;7.60;;;6.78;;
16460;SDS011;8341;42.048;24.650;2023-04-06T10:22:15;9.18;;;7.57;;
16460;SDS011;8341;42.048;24.650;2023-04-06T10:24:49;9.68;;;6.75;;
16460;SDS011;8341;42.048;24.650;2023-04-06T10:27:26;8.45;;;7.40;;
16460;SDS011;8341;42.048;24.650;2023-04-06T10:29:54;8.75;;;7.25;;
16460;SDS011;8341;42.048;24.650;2023-04-06T10:32:32;9.27;;;7.95;;
16460;SDS011;8341;42.048;24.650;2023-04-06T10:35:07;7.97;;;7.13;;
16460;SDS011;8341;42.048;24.650;2023-04-06T10:37:51;7.82;;;6.75;;
16460;SDS011;8341;42.048;24.650;2023-04-06T10:40:20;8.15;;;6.88;;
16460;SDS011;8341;42.048;24.650;2023-04-06T10:42:51;7.78;;;6.97;;
16460;SDS011;8341;42.048;24.650;2023-04-06T10:45:19;8.48;;;7.50;;
16460;SDS011;8341;42.048;24.650;2023-04-06T10:47:47;7.22;;;6.32;;
16460;SDS011;8341;42.048;24.650;2023-04-06T10:50:15;6.63;;;6.00;;
16460;SDS011;8341;42.048;24.650;2023-04-06T10:52:44;6.18;;;5.47;;
16460;SDS011;8341;42.048;24.650;2023-04-06T10:55:13;6.57;;;5.90;;
16460;SDS011;8341;42.048;24.650;2023-04-06T10:57:41;6.60;;;6.00;;
16460;SDS011;8341;42.048;24.650;2023-04-06T11:00:11;5.93;;;5.32;;
16460;SDS011;8341;42.048;24.650;2023-04-06T11:02:39;6.78;;;6.07;;
16460;SDS011;8341;42.048;24.650;2023-04-06T11:05:07;6.15;;;5.55;;
16460;SDS011;8341;42.048;24.650;2023-04-06T11:07:34;6.35;;;5.55;;
16460;SDS011;8341;42.048;24.650;2023-04-06T11:10:01;7.32;;;6.40;;
16460;SDS011;8341;42.048;24.650;2023-04-06T11:12:29;7.28;;;6.30;;
16460;SDS011;8341;42.048;24.650;2023-04-06T11:14:56;5.90;;;5.30;;
16460;SDS011;8341;42.048;24.650;2023-04-06T11:17:30;7.32;;;5.75;;
16460;SDS011;8341;42.048;24.650;2023-04-06T11:19:58;6.70;;;6.00;;
16460;SDS011;8341;42.048;24.650;2023-04-06T11:22:26;7.15;;;5.97;;
16460;SDS011;8341;42.048;24.650;2023-04-06T11:25:03;7.68;;;6.88;;
16460;SDS011;8341;42.048;24.650;2023-04-06T11:27:32;7.97;;;5.97;;
16460;SDS011;8341;42.048;24.650;2023-04-06T11:29:59;7.00;;;6.25;;
16460;SDS011;8341;42.048;24.650;2023-04-06T11:32:27;7.03;;;5.95;;
16460;SDS011;8341;42.048;24.650;2023-04-06T11:34:57;7.25;;;6.25;;
16460;SDS011;8341;42.048;24.650;2023-04-06T11:37:26;6.93;;;6.20;;
16460;SDS011;8341;42.048;24.650;2023-04-06T11:39:54;6.88;;;6.20;;
16460;SDS011;8341;42.048;24.650;2023-04-06T11:42:22;6.63;;;6.03;;
16460;SDS011;8341;42.048;24.650;2023-04-06T11:44:50;8.00;;;6.75;;
16460;SDS011;8341;42.048;24.650;2023-04-06T11:47:18;7.63;;;6.70;;
16460;SDS011;8341;42.048;24.650;2023-04-06T11:49:47;8.13;;;7.00;;
16460;SDS011;8341;42.048;24.650;2023-04-06T11:52:17;7.60;;;6.20;;
16460;SDS011;8341;42.048;24.650;2023-04-06T11:54:45;6.97;;;6.15;;
16460;SDS011;8341;42.048;24.650;2023-04-06T11:57:13;8.57;;;6.50;;
16460;SDS011;8341;42.048;24.650;2023-04-06T11:59:41;9.27;;;7.53;;
16460;SDS011;8341;42.048;24.650;2023-04-06T12:02:09;7.38;;;6.13;;
16460;SDS011;8341;42.048;24.650;2023-04-06T12:04:37;7.85;;;7.05;;
16460;SDS011;8341;42.048;24.650;2023-04-06T12:07:04;7.95;;;7.15;;
16460;SDS011;8341;42.048;24.650;2023-04-06T12:09:33;7.22;;;6.47;;
16460;SDS011;8341;42.048;24.650;2023-04-06T12:12:01;6.82;;;6.13;;
16460;SDS011;8341;42.048;24.650;2023-04-06T12:14:29;8.52;;;6.35;;
16460;SDS011;8341;42.048;24.650;2023-04-06T12:16:57;7.75;;;6.53;;
16460;SDS011;8341;42.048;24.650;2023-04-06T12:19:24;9.05;;;6.72;;
16460;SDS011;8341;42.048;24.650;2023-04-06T12:21:52;7.32;;;6.47;;
16460;SDS011;8341;42.048;24.650;2023-04-06T12:24:19;7.80;;;6.32;;
16460;SDS011;8341;42.048;24.650;2023-04-06T12:26:48;8.18;;;6.70;;
16460;SDS011;8341;42.048;24.650;2023-04-06T12:29:15;6.68;;;5.88;;
16460;SDS011;8341;42.048;24.650;2023-04-06T12:31:42;6.65;;;5.97;;
16460;SDS011;8341;42.048;24.650;2023-04-06T12:34:10;7.30;;;6.55;;
16460;SDS011;8341;42.048;24.650;2023-04-06T12:36:37;7.47;;;6.20;;
16460;SDS011;8341;42.048;24.650;2023-04-06T12:39:04;7.82;;;6.13;;
16460;SDS011;8341;42.048;24.650;2023-04-06T12:41:32;8.02;;;6.60;;
16460;SDS011;8341;42.048;24.650;2023-04-06T12:44:00;7.05;;;6.18;;
16460;SDS011;8341;42.048;24.650;2023-04-06T12:46:28;11.65;;;6.43;;
16460;SDS011;8341;42.048;24.650;2023-04-06T12:48:56;7.13;;;6.22;;
16460;SDS011;8341;42.048;24.650;2023-04-06T12:51:24;6.45;;;5.85;;
16460;SDS011;8341;42.048;24.650;2023-04-06T12:53:53;7.68;;;6.55;;
16460;SDS011;8341;42.048;24.650;2023-04-06T12:56:21;8.50;;;6.85;;
16460;SDS011;8341;42.048;24.650;2023-04-06T12:58:49;7.43;;;6.40;;
16460;SDS011;8341;42.048;24.650;2023-04-06T13:01:18;7.32;;;6.63;;
16460;SDS011;8341;42.048;24.650;2023-04-06T13:03:46;8.40;;;7.15;;
16460;SDS011;8341;42.048;24.650;2023-04-06T13:06:13;7.47;;;6.40;;
16460;SDS011;8341;42.048;24.650;2023-04-06T13:08:40;6.82;;;6.00;;
16460;SDS011;8341;42.048;24.650;2023-04-06T13:11:07;8.10;;;6.80;;
16460;SDS011;8341;42.048;24.650;2023-04-06T13:13:35;7.28;;;6.53;;
16460;SDS011;8341;42.048;24.650;2023-04-06T13:16:03;7.80;;;6.93;;
16460;SDS011;8341;42.048;24.650;2023-04-06T13:18:34;9.43;;;6.88;;
16460;SDS011;8341;42.048;24.650;2023-04-06T13:21:03;6.60;;;6.00;;
16460;SDS011;8341;42.048;24.650;2023-04-06T13:23:31;7.70;;;6.22;;
16460;SDS011;8341;42.048;24.650;2023-04-06T13:25:58;8.18;;;5.97;;
16460;SDS011;8341;42.048;24.650;2023-04-06T13:28:26;6.82;;;6.20;;
16460;SDS011;8341;42.048;24.650;2023-04-06T13:30:54;7.72;;;6.43;;
16460;SDS011;8341;42.048;24.650;2023-04-06T13:33:21;9.85;;;7.00;;
16460;SDS011;8341;42.048;24.650;2023-04-06T13:35:50;8.45;;;7.25;;
16460;SDS011;8341;42.048;24.650;2023-04-06T13:38:17;9.85;;;7.45;;
16460;SDS011;8341;42.048;24.650;2023-04-06T13:40:44;8.88;;;6.43;;
16460;SDS011;8341;42.048;24.650;2023-04-06T13:43:11;9.70;;;6.88;;
16460;SDS011;8341;42.048;24.650;2023-04-06T13:45:38;8.35;;;7.15;;
16460;SDS011;8341;42.048;24.650;2023-04-06T13:48:06;7.95;;;7.00;;
16460;SDS011;8341;42.048;24.650;2023-04-06T13:50:33;6.50;;;5.88;;
16460;SDS011;8341;42.048;24.650;2023-04-06T13:53:01;7.65;;;6.78;;
16460;SDS011;8341;42.048;24.650;2023-04-06T13:55:28;8.70;;;6.60;;
16460;SDS011;8341;42.048;24.650;2023-04-06T13:57:56;7.63;;;6.78;;
16460;SDS011;8341;42.048;24.650;2023-04-06T14:00:23;8.25;;;7.07;;
16460;SDS011;8341;42.048;24.650;2023-04-06T14:02:50;7.28;;;6.57;;
16460;SDS011;8341;42.048;24.650;2023-04-06T14:05:20;8.65;;;6.78;;
16460;SDS011;8341;42.048;24.650;2023-04-06T14:07:48;7.95;;;7.05;;
16460;SDS011;8341;42.048;24.650;2023-04-06T14:10:17;10.73;;;9.60;;
16460;SDS011;8341;42.048;24.650;2023-04-06T14:12:46;9.38;;;7.90;;
16460;SDS011;8341;42.048;24.650;2023-04-06T14:15:13;8.82;;;7.82;;
16460;SDS011;8341;42.048;24.650;2023-04-06T14:17:40;15.90;;;9.43;;
16460;SDS011;8341;42.048;24.650;2023-04-06T14:20:07;10.30;;;8.35;;
16460;SDS011;8341;42.048;24.650;2023-04-06T14:22:39;8.15;;;6.75;;
16460;SDS011;8341;42.048;24.650;2023-04-06T14:25:07;7.70;;;6.80;;
16460;SDS011;8341;42.048;24.650;2023-04-06T14:27:36;10.25;;;7.90;;
16460;SDS011;8341;42.048;24.650;2023-04-06T14:30:03;9.30;;;7.25;;
16460;SDS011;8341;42.048;24.650;2023-04-06T14:32:30;13.27;;;7.85;;
16460;SDS011;8341;42.048;24.650;2023-04-06T14:34:58;7.95;;;7.15;;
16460;SDS011;8341;42.048;24.650;2023-04-06T14:37:25;14.55;;;12.02;;
16460;SDS011;8341;42.048;24.650;2023-04-06T14:39:52;9.35;;;7.40;;
16460;SDS011;8341;42.048;24.650;2023-04-06T14:42:19;8.68;;;7.40;;
16460;SDS011;8341;42.048;24.650;2023-04-06T14:44:47;8.68;;;7.28;;
16460;SDS011;8341;42.048;24.650;2023-04-06T14:47:14;7.05;;;6.35;;
16460;SDS011;8341;42.048;24.650;2023-04-06T14:49:45;7.63;;;6.55;;